createdAt,value
2022-12-26T00:01:26.849Z,8.51
2022-12-26T00:04:51.248Z,8.52
2022-12-26T00:08:08.149Z,8.70
2022-12-26T00:11:17.670Z,8.70
2022-12-26T00:14:21.109Z,8.62
2022-12-26T00:17:26.300Z,8.56
2022-12-26T00:20:41.036Z,8.68
2022-12-26T00:23:44.716Z,8.59
2022-12-26T00:26:55.642Z,8.67
2022-12-26T00:30:04.500Z,8.70
2022-12-26T00:33:44.343Z,8.70
2022-12-26T00:36:54.778Z,8.74
2022-12-26T00:39:59.561Z,8.68
2022-12-26T00:43:05.699Z,8.73
2022-12-26T00:46:10.228Z,8.78
2022-12-26T00:49:14.708Z,8.80
2022-12-26T00:52:18.032Z,8.80
2022-12-26T00:55:21.359Z,8.80
2022-12-26T00:58:25.671Z,8.84
2022-12-26T01:01:31.143Z,8.79
2022-12-26T01:04:39.798Z,8.81
2022-12-26T01:08:22.878Z,8.83
2022-12-26T01:11:10.954Z,8.82
2022-12-26T01:14:19.065Z,8.86
2022-12-26T01:17:22.539Z,8.80
2022-12-26T01:20:29.197Z,8.83
2022-12-26T01:23:32.450Z,8.82
2022-12-26T01:26:35.554Z,8.86
2022-12-26T01:29:38.573Z,8.88
2022-12-26T01:32:44.263Z,8.83
2022-12-26T01:35:53.580Z,8.78
2022-12-26T01:38:56.758Z,8.84
2022-12-26T01:42:02.913Z,8.92
2022-12-26T01:45:19.211Z,8.92
2022-12-26T01:48:26.035Z,8.89
2022-12-26T01:51:42.331Z,8.93
2022-12-26T01:54:49.473Z,8.89
2022-12-26T01:58:01.888Z,8.86
2022-12-26T02:01:09.051Z,8.82
2022-12-26T02:04:34.549Z,8.81
2022-12-26T02:07:43.019Z,8.72
2022-12-26T02:10:54.914Z,8.73
2022-12-26T02:14:00.739Z,8.78
2022-12-26T02:17:04.476Z,8.71
2022-12-26T02:20:18.800Z,8.80
2022-12-26T02:24:32.323Z,8.89
2022-12-26T02:28:02.615Z,8.96
2022-12-26T02:31:14.568Z,9.05
2022-12-26T02:34:24.365Z,9.07
2022-12-26T02:37:46.053Z,9.10
2022-12-26T02:41:06.096Z,9.05
2022-12-26T02:44:38.978Z,9.04
2022-12-26T02:47:56.640Z,9.10
2022-12-26T02:51:28.981Z,9.09
2022-12-26T02:54:56.613Z,9.09
2022-12-26T02:58:26.364Z,9.07
2022-12-26T03:01:52.571Z,9.07
2022-12-26T03:05:19.113Z,9.08
2022-12-26T03:08:48.198Z,9.10
2022-12-26T03:12:15.750Z,9.12
2022-12-26T03:15:22.164Z,9.14
2022-12-26T03:18:58.417Z,9.19
2022-12-26T03:21:52.762Z,9.20
2022-12-26T03:25:17.378Z,9.23
2022-12-26T03:28:20.934Z,9.24
2022-12-26T03:31:23.147Z,9.20
2022-12-26T03:34:28.391Z,9.31
2022-12-26T03:37:50.218Z,9.41
2022-12-26T03:41:19.635Z,9.41
2022-12-26T03:44:53.951Z,9.41
2022-12-26T03:48:25.450Z,9.41
2022-12-26T03:52:13.513Z,9.36
2022-12-26T03:55:44.084Z,9.40
2022-12-26T03:59:14.590Z,9.45
2022-12-26T04:02:37.548Z,9.47
2022-12-26T04:06:03.548Z,9.57
2022-12-26T04:09:31.265Z,9.54
2022-12-26T04:13:01.265Z,9.57
2022-12-26T04:16:33.040Z,9.64
2022-12-26T04:20:07.545Z,9.78
2022-12-26T04:23:33.560Z,9.79
2022-12-26T04:27:02.215Z,9.76
2022-12-26T04:30:26.236Z,9.71
2022-12-26T04:34:02.388Z,9.69
2022-12-26T04:37:28.319Z,9.76
2022-12-26T04:40:53.694Z,9.76
2022-12-26T04:44:06.694Z,9.77
2022-12-26T04:47:12.131Z,9.76
2022-12-26T04:50:15.478Z,9.81
2022-12-26T04:53:19.189Z,9.82
2022-12-26T04:56:22.440Z,9.77
2022-12-26T04:59:26.297Z,9.76
2022-12-26T05:02:48.752Z,9.77
2022-12-26T05:06:11.397Z,9.76
2022-12-26T05:09:39.427Z,9.76
2022-12-26T05:12:42.475Z,9.80
2022-12-26T05:16:03.571Z,9.76
2022-12-26T05:19:29.575Z,9.84
2022-12-26T05:22:53.854Z,9.84
2022-12-26T05:26:17.039Z,9.86
2022-12-26T05:29:20.207Z,9.87
2022-12-26T05:32:40.717Z,9.95
2022-12-26T05:35:45.205Z,9.96
2022-12-26T05:38:49.218Z,9.96
2022-12-26T05:41:55.152Z,9.97
2022-12-26T05:44:58.201Z,9.95
2022-12-26T05:48:02.391Z,10.05
2022-12-26T05:51:07.081Z,10.01
2022-12-26T05:54:10.123Z,10.06
2022-12-26T05:57:13.320Z,10.06
2022-12-26T06:00:18.481Z,10.06
2022-12-26T06:03:21.590Z,10.08
2022-12-26T06:06:27.441Z,10.13
2022-12-26T06:09:30.561Z,10.11
2022-12-26T06:12:34.326Z,10.10
2022-12-26T06:15:39.613Z,10.08
2022-12-26T06:18:43.303Z,10.08
2022-12-26T06:21:47.759Z,10.07
2022-12-26T06:24:51.071Z,10.09
2022-12-26T06:27:54.344Z,10.13
2022-12-26T06:31:04.390Z,10.15
2022-12-26T06:34:07.585Z,10.13
2022-12-26T06:37:12.005Z,10.11
2022-12-26T06:40:15.340Z,10.09
2022-12-26T06:43:21.257Z,10.12
2022-12-26T06:46:28.706Z,10.06
2022-12-26T06:49:33.272Z,10.07
2022-12-26T06:52:40.940Z,10.10
2022-12-26T06:55:47.171Z,10.12
2022-12-26T06:58:54.751Z,10.10
2022-12-26T07:02:06.483Z,10.11
2022-12-26T07:05:10.038Z,10.09
2022-12-26T07:08:14.489Z,10.10
2022-12-26T07:11:20.134Z,10.04
2022-12-26T07:14:23.183Z,10.10
2022-12-26T07:17:26.223Z,10.11
2022-12-26T07:20:29.328Z,10.10
2022-12-26T07:23:34.101Z,10.07
2022-12-26T07:26:37.517Z,10.07
2022-12-26T07:29:40.866Z,10.06
2022-12-26T07:32:48.294Z,9.99
2022-12-26T07:35:52.804Z,10.04
2022-12-26T07:38:59.756Z,10.07
2022-12-26T07:42:07.089Z,10.10
2022-12-26T07:45:11.099Z,10.12
2022-12-26T07:48:14.237Z,10.09
2022-12-26T07:51:20.115Z,10.04
2022-12-26T07:54:28.576Z,10.00
2022-12-26T07:57:49.523Z,10.01
2022-12-26T08:00:52.956Z,10.01
2022-12-26T08:03:56.085Z,10.00
2022-12-26T08:06:59.424Z,9.97
2022-12-26T08:10:04.257Z,9.95
2022-12-26T08:13:09.787Z,9.99
2022-12-26T08:16:14.990Z,10.01
2022-12-26T08:19:21.394Z,10.01
2022-12-26T08:22:28.278Z,9.99
2022-12-26T08:25:32.794Z,10.06
2022-12-26T08:28:36.213Z,10.06
2022-12-26T08:31:39.864Z,10.08
2022-12-26T08:34:43.196Z,10.09
2022-12-26T08:37:48.292Z,10.10
2022-12-26T08:40:57.405Z,10.14
2022-12-26T08:44:26.123Z,10.17
2022-12-26T08:47:27.560Z,10.12
2022-12-26T08:50:30.861Z,10.13
2022-12-26T08:53:40.248Z,10.18
2022-12-26T08:56:47.156Z,10.19
2022-12-26T08:59:50.539Z,10.18
2022-12-26T09:02:53.932Z,10.20
2022-12-26T09:06:05.912Z,10.20
2022-12-26T09:09:17.043Z,10.21
2022-12-26T09:12:21.766Z,10.26
2022-12-26T09:15:25.080Z,10.25
2022-12-26T09:18:28.134Z,10.26
2022-12-26T09:21:31.871Z,10.28
2022-12-26T09:24:37.622Z,10.33
2022-12-26T09:27:45.176Z,10.33
2022-12-26T09:30:48.662Z,10.29
2022-12-26T09:33:55.488Z,10.28
2022-12-26T09:37:02.087Z,10.37
2022-12-26T09:40:07.000Z,10.35
2022-12-26T09:43:23.089Z,10.37
2022-12-26T09:46:33.759Z,10.39
2022-12-26T09:49:44.689Z,10.39
2022-12-26T09:52:54.295Z,10.39
2022-12-26T09:56:06.034Z,10.43
2022-12-26T09:59:19.305Z,10.45
2022-12-26T10:02:25.308Z,10.49
2022-12-26T10:05:37.258Z,10.52
2022-12-26T10:09:10.787Z,10.59
2022-12-26T10:12:34.879Z,10.68
2022-12-26T10:15:52.282Z,10.64
2022-12-26T10:19:06.340Z,10.71
2022-12-26T10:22:50.034Z,10.68
2022-12-26T10:25:58.599Z,10.71
2022-12-26T10:29:18.821Z,10.74
2022-12-26T10:32:30.946Z,10.70
2022-12-26T10:35:41.549Z,10.69
2022-12-26T10:38:50.317Z,10.73
2022-12-26T10:42:00.948Z,10.72
2022-12-26T10:45:15.644Z,10.66
2022-12-26T10:48:28.980Z,10.66
2022-12-26T10:51:32.632Z,10.64
2022-12-26T10:54:36.080Z,10.64
2022-12-26T10:57:41.463Z,10.65
2022-12-26T11:00:47.458Z,10.62
2022-12-26T11:03:59.906Z,10.62
2022-12-26T11:07:19.841Z,10.62
2022-12-26T11:10:27.397Z,10.57
2022-12-26T11:13:38.094Z,10.58
2022-12-26T11:16:54.989Z,10.52
2022-12-26T11:20:27.811Z,10.52
2022-12-26T11:23:41.403Z,10.53
2022-12-26T11:26:48.104Z,10.46
2022-12-26T11:30:13.011Z,10.43
2022-12-26T11:33:25.988Z,10.43
2022-12-26T11:36:32.755Z,10.42
2022-12-26T11:39:39.814Z,10.30
2022-12-26T11:42:43.463Z,10.30
2022-12-26T11:45:51.304Z,10.26
2022-12-26T11:48:59.813Z,10.28
2022-12-26T11:52:35.233Z,10.33
2022-12-26T11:55:40.498Z,10.31
2022-12-26T11:58:45.272Z,10.32
2022-12-26T12:01:51.554Z,10.35
2022-12-26T12:05:01.398Z,10.35
2022-12-26T12:08:27.317Z,10.37
2022-12-26T12:11:42.397Z,10.37
2022-12-26T12:15:01.690Z,10.36
2022-12-26T12:18:19.756Z,10.38
2022-12-26T12:21:33.133Z,10.35
2022-12-26T12:24:57.552Z,10.27
2022-12-26T12:28:17.867Z,10.27
2022-12-26T12:31:33.072Z,10.27
2022-12-26T12:35:03.571Z,10.19
2022-12-26T12:38:40.089Z,10.21
2022-12-26T12:42:06.370Z,10.21
2022-12-26T12:45:27.795Z,10.23
2022-12-26T12:48:52.157Z,10.24
2022-12-26T12:52:14.596Z,10.28
2022-12-26T12:56:00.789Z,10.31
2022-12-26T12:59:15.582Z,10.30
2022-12-26T13:02:26.807Z,10.30
2022-12-26T13:05:45.817Z,10.33
2022-12-26T13:08:54.317Z,10.29
2022-12-26T13:12:10.972Z,10.32
2022-12-26T13:16:35.572Z,10.31
2022-12-26T13:20:02.450Z,10.33
2022-12-26T13:23:29.895Z,10.34
2022-12-26T13:26:38.676Z,10.36
2022-12-26T13:29:44.641Z,10.35
2022-12-26T13:32:49.811Z,10.34
2022-12-26T13:35:59.217Z,10.28
2022-12-26T13:39:40.577Z,10.32
2022-12-26T13:43:09.147Z,10.34
2022-12-26T13:46:38.657Z,10.35
2022-12-26T13:49:43.334Z,10.31
2022-12-26T13:52:47.605Z,10.19
2022-12-26T13:55:55.003Z,10.14
2022-12-26T13:59:02.193Z,10.11
2022-12-26T14:03:23.744Z,10.07
2022-12-26T14:07:43.287Z,10.04
2022-12-26T14:11:03.897Z,9.97
2022-12-26T14:14:23.174Z,9.95
2022-12-26T14:17:48.075Z,9.94
2022-12-26T14:21:03.501Z,9.98
2022-12-26T14:24:39.592Z,9.97
2022-12-26T14:27:54.324Z,9.96
2022-12-26T14:31:12.585Z,9.90
2022-12-26T14:34:43.021Z,9.88
2022-12-26T14:38:02.251Z,9.76
2022-12-26T14:41:37.393Z,9.64
2022-12-26T14:44:44.728Z,9.54
2022-12-26T14:47:50.294Z,9.47
2022-12-26T14:50:55.961Z,9.48
2022-12-26T14:54:39.598Z,9.42
2022-12-26T14:57:49.467Z,9.43
2022-12-26T15:00:54.603Z,9.44
2022-12-26T15:04:00.777Z,9.42
2022-12-26T15:07:51.171Z,9.49
2022-12-26T15:11:37.424Z,9.48
2022-12-26T15:15:26.983Z,9.52
2022-12-26T15:19:21.447Z,9.52
2022-12-26T15:23:17.361Z,9.53
2022-12-26T15:27:10.376Z,9.54
2022-12-26T15:30:20.705Z,9.59
2022-12-26T15:33:31.398Z,9.56
2022-12-26T15:36:47.436Z,9.52
2022-12-26T15:40:08.197Z,9.46
2022-12-26T15:43:29.951Z,9.39
2022-12-26T15:46:44.239Z,9.38
2022-12-26T15:50:03.888Z,9.35
2022-12-26T15:53:23.977Z,9.23
2022-12-26T15:56:51.808Z,9.12
2022-12-26T16:00:16.963Z,9.05
2022-12-26T16:03:43.663Z,8.96
2022-12-26T16:07:10.843Z,8.91
2022-12-26T16:10:32.057Z,8.90
2022-12-26T16:13:35.752Z,8.83
2022-12-26T16:16:41.932Z,8.80
2022-12-26T16:19:48.384Z,8.79
2022-12-26T16:22:50.479Z,8.87
2022-12-26T16:25:56.324Z,8.91
2022-12-26T16:29:02.238Z,8.89
2022-12-26T16:32:07.467Z,8.91
2022-12-26T16:35:21.390Z,8.89
2022-12-26T16:38:30.799Z,9.03
2022-12-26T16:41:34.514Z,9.07
2022-12-26T16:44:39.810Z,9.16
2022-12-26T16:47:49.910Z,9.22
2022-12-26T16:50:58.132Z,9.23
2022-12-26T16:54:27.739Z,9.28
2022-12-26T16:57:36.341Z,9.27
2022-12-26T17:00:39.711Z,9.32
2022-12-26T17:03:52.150Z,9.36
2022-12-26T17:07:07.040Z,9.49
2022-12-26T17:10:24.217Z,9.48
2022-12-26T17:13:29.808Z,9.46
2022-12-26T17:16:34.052Z,9.55
2022-12-26T17:19:38.392Z,9.55
2022-12-26T17:22:44.935Z,9.52
2022-12-26T17:25:50.916Z,9.59
2022-12-26T17:28:54.482Z,9.64
2022-12-26T17:31:57.623Z,9.62
2022-12-26T17:35:08.699Z,9.74
2022-12-26T17:38:23.832Z,9.69
2022-12-26T17:41:26.973Z,9.67
2022-12-26T17:44:39.297Z,9.61
2022-12-26T17:47:42.475Z,9.59
2022-12-26T17:50:50.374Z,9.59
2022-12-26T17:53:54.753Z,9.53
2022-12-26T17:56:57.792Z,9.40
2022-12-26T18:00:00.887Z,9.38
2022-12-26T18:03:04.014Z,9.33
2022-12-26T18:06:07.367Z,9.36
2022-12-26T18:09:25.265Z,9.28
2022-12-26T18:12:28.487Z,9.20
2022-12-26T18:15:32.858Z,9.16
2022-12-26T18:18:38.350Z,9.14
2022-12-26T18:21:41.580Z,9.12
2022-12-26T18:24:46.583Z,9.15
2022-12-26T18:27:51.648Z,9.11
2022-12-26T18:30:55.154Z,9.06
2022-12-26T18:33:58.791Z,9.00
2022-12-26T18:37:01.805Z,8.93
2022-12-26T18:40:11.515Z,8.84
2022-12-26T18:43:15.487Z,8.81
2022-12-26T18:46:20.583Z,8.77
2022-12-26T18:49:25.776Z,8.76
2022-12-26T18:52:29.063Z,8.70
2022-12-26T18:55:33.909Z,8.62
2022-12-26T18:58:36.910Z,8.57
2022-12-26T19:01:39.964Z,8.42
2022-12-26T19:04:43.413Z,8.40
2022-12-26T19:07:48.276Z,8.35
2022-12-26T19:10:55.598Z,8.25
2022-12-26T19:14:00.770Z,8.16
2022-12-26T19:17:03.894Z,8.13
2022-12-26T19:20:09.254Z,8.09
2022-12-26T19:23:12.683Z,8.05
2022-12-26T19:26:19.944Z,7.96
2022-12-26T19:29:23.641Z,7.95
2022-12-26T19:32:26.827Z,7.89
2022-12-26T19:35:29.871Z,7.81
2022-12-26T19:38:33.083Z,7.74
2022-12-26T19:41:37.437Z,7.66
2022-12-26T19:44:42.961Z,7.60
2022-12-26T19:47:47.547Z,7.54
2022-12-26T19:50:50.722Z,7.46
2022-12-26T19:53:59.777Z,7.44
2022-12-26T19:57:10.673Z,7.40
2022-12-26T20:00:16.986Z,7.35
2022-12-26T20:03:20.290Z,7.31
2022-12-26T20:06:26.085Z,7.28
2022-12-26T20:09:31.876Z,7.25
2022-12-26T20:12:36.341Z,7.19
2022-12-26T20:15:42.508Z,7.13
2022-12-26T20:18:47.662Z,7.10
2022-12-26T20:21:51.316Z,7.10
2022-12-26T20:24:54.563Z,7.09
2022-12-26T20:28:02.145Z,7.06
2022-12-26T20:31:12.950Z,6.98
2022-12-26T20:34:16.436Z,6.98
2022-12-26T20:37:19.468Z,6.91
2022-12-26T20:40:25.266Z,6.82
2022-12-26T20:43:30.417Z,6.81
2022-12-26T20:46:37.755Z,6.73
2022-12-26T20:49:44.895Z,6.71
2022-12-26T20:52:48.222Z,6.70
2022-12-26T20:55:51.661Z,6.69
2022-12-26T20:59:01.051Z,6.66
2022-12-26T21:02:04.212Z,6.63
2022-12-26T21:05:08.013Z,6.63
2022-12-26T21:08:11.885Z,6.62
2022-12-26T21:11:20.496Z,6.54
2022-12-26T21:14:25.209Z,6.48
2022-12-26T21:17:28.348Z,6.44
2022-12-26T21:20:32.107Z,6.39
2022-12-26T21:23:36.570Z,6.37
2022-12-26T21:26:41.898Z,6.30
2022-12-26T21:29:46.338Z,6.22
2022-12-26T21:32:49.426Z,6.19
2022-12-26T21:35:53.365Z,6.18
2022-12-26T21:38:57.548Z,6.18
2022-12-26T21:42:01.836Z,6.09
2022-12-26T21:45:07.429Z,6.14
2022-12-26T21:48:10.680Z,6.11
2022-12-26T21:51:15.090Z,6.11
2022-12-26T21:54:35.989Z,6.09
2022-12-26T21:57:39.059Z,6.05
2022-12-26T22:00:43.895Z,6.08
2022-12-26T22:04:06.553Z,6.03
2022-12-26T22:07:19.470Z,6.03
2022-12-26T22:10:42.518Z,6.02
2022-12-26T22:13:53.057Z,5.99
2022-12-26T22:17:03.141Z,6.03
2022-12-26T22:20:10.580Z,6.00
2022-12-26T22:23:19.288Z,6.00
2022-12-26T22:26:33.995Z,6.02
2022-12-26T22:29:40.014Z,5.98
2022-12-26T22:32:49.508Z,5.97
2022-12-26T22:35:56.499Z,5.96
2022-12-26T22:39:02.649Z,5.94
2022-12-26T22:42:09.014Z,5.91
2022-12-26T22:45:13.292Z,5.86
2022-12-26T22:48:22.820Z,5.87
2022-12-26T22:51:27.885Z,5.86
2022-12-26T22:54:34.744Z,5.84
2022-12-26T22:57:37.987Z,5.83
2022-12-26T23:00:41.995Z,5.86
2022-12-26T23:03:49.270Z,5.84
2022-12-26T23:06:53.401Z,5.87
2022-12-26T23:09:56.968Z,5.89
2022-12-26T23:13:01.575Z,5.87
2022-12-26T23:16:22.400Z,5.86
2022-12-26T23:19:55.547Z,5.87
2022-12-26T23:23:05.364Z,5.82
2022-12-26T23:26:08.659Z,5.84
2022-12-26T23:29:35.880Z,5.82
2022-12-26T23:32:43.624Z,5.80
2022-12-26T23:35:48.194Z,5.79
2022-12-26T23:38:53.701Z,5.76
2022-12-26T23:42:03.665Z,5.73
2022-12-26T23:45:13.477Z,5.72
2022-12-26T23:48:22.148Z,5.74
2022-12-26T23:51:26.995Z,5.71
2022-12-26T23:54:32.546Z,5.67
2022-12-26T23:57:35.766Z,5.68
